EUG weather

Mahlon Sweet Field
Eugene, Oregon, United States

Public forecast

Using degrees Fahrenheit for public forecast. Weather courtesy of forecast.io.

METAR (pilot weather report)

Retrieved 2019/06/17 19:54 UTC (29 minutes ago):

KEUG 171954Z 02012KT 10SM FEW080 SCT250 26/12 A3013 RMK AO2 SLP201 T02560117

TAF (pilot weather forecast)

Retrieved 2019/06/17 18:34 UTC (2 hours ago):

TAF KEUG 171731Z 1718/1818 36009KT P6SM SCT250 FM172000 01010G17KT P6SM SCT250 FM180200 36010KT P6SM SCT250 FM181200 33005KT P6SM BKN022